Time;durP1;ratioP1;P1;durP2;ratioP2;P2;SDS_P1;SDS_P2;PMS_P1;PMS_P2;Temp;Humidity;BMP_temperature;BMP_pressure;BME280_temperature;BME280_humidity;BME280_pressure;Samples;Min_cycle;Max_cycle;Signal;HPM_P1;HPM_P2
2021/10/04 00:20:54;;;;;;;2.47;0.30;;;19.90;66.40;;;;;;208187199;28;20033;-60
2021/10/04 02:00:55;;;;;;;0.77;0.50;;;19.90;67.40;;;;;;208138251;28;20120;-61
2021/10/04 03:40:56;;;;;;;5.93;1.50;;;19.80;67.50;;;;;;208284591;28;20041;-60
2021/10/04 05:20:57;;;;;;;1.27;0.47;;;19.70;67.40;;;;;;208144086;28;20033;-59
2021/10/04 05:53:03;;;;;;;4.78;1.00;;;19.70;67.30;;;;;;20766672;28;20208;-60
2021/10/04 06:03:04;;;;;;;12.82;1.77;;;19.70;66.90;;;;;;20863667;28;20057;-58
2021/10/04 06:13:04;;;;;;;14.30;3.47;;;19.60;63.50;;;;;;20816900;28;20450;-59
2021/10/04 06:23:06;;;;;;;15.15;3.30;;;19.60;59.90;;;;;;20839349;28;20539;-60
2021/10/04 06:33:07;;;;;;;10.07;2.38;;;19.70;61.80;;;;;;20805222;28;20042;-61
2021/10/04 06:43:08;;;;;;;16.08;3.15;;;20.00;62.00;;;;;;20828132;28;20024;-62
2021/10/04 06:53:08;;;;;;;19.20;2.78;;;20.30;62.40;;;;;;20943909;28;20025;-62
2021/10/04 07:03:09;;;;;;;9.07;1.93;;;20.50;62.30;;;;;;20863141;28;20036;-62
2021/10/04 07:13:09;;;;;;;9.70;2.35;;;20.90;62.00;;;;;;20900632;28;20028;-62
2021/10/04 07:23:10;;;;;;;4.40;1.33;;;21.10;61.70;;;;;;20904439;28;20665;-62
2021/10/04 07:33:11;;;;;;;9.00;1.85;;;21.20;61.80;;;;;;20847125;28;20079;-62
2021/10/04 07:43:11;;;;;;;4.75;1.30;;;21.10;62.00;;;;;;20875837;28;20159;-60
2021/10/04 07:53:12;;;;;;;7.90;1.38;;;21.20;62.30;;;;;;20905797;28;20490;-62
2021/10/04 08:03:13;;;;;;;7.43;1.63;;;21.10;62.60;;;;;;20880747;28;20048;-60
2021/10/04 08:13:13;;;;;;;12.88;1.50;;;21.00;62.90;;;;;;20866610;28;20028;-60
2021/10/04 08:23:14;;;;;;;13.07;1.40;;;21.00;63.10;;;;;;20862637;28;20547;-62
2021/10/04 08:33:14;;;;;;;14.90;1.40;;;20.90;63.20;;;;;;20887913;28;20060;-62
2021/10/04 08:43:15;;;;;;;7.97;1.45;;;20.90;63.40;;;;;;20845463;28;20055;-61
2021/10/04 08:53:16;;;;;;;7.03;1.05;;;20.80;63.30;;;;;;20865334;28;20029;-60
2021/10/04 09:03:17;;;;;;;7.65;1.70;;;20.80;63.60;;;;;;20856126;28;20550;-58
2021/10/04 09:13:17;;;;;;;5.93;1.20;;;20.80;63.80;;;;;;20886765;28;20095;-61
2021/10/04 09:23:33;;;;;;;6.10;0.90;;;20.70;63.70;;;;;;20868820;28;20075;-59
2021/10/04 09:33:53;;;;;;;8.25;1.20;;;20.80;63.80;;;;;;20897529;28;20090;-60
2021/10/04 09:44:02;;;;;;;18.42;1.75;;;20.70;63.50;;;;;;20853005;28;20036;-60
2021/10/04 09:54:10;;;;;;;11.88;1.10;;;20.80;64.00;;;;;;20846558;28;20029;-61
2021/10/04 10:04:14;;;;;;;6.87;1.37;;;20.70;63.90;;;;;;20845186;28;20021;-60
2021/10/04 10:14:15;;;;;;;6.45;1.13;;;20.80;63.90;;;;;;20853864;28;20029;-60
2021/10/04 10:24:30;;;;;;;8.10;1.02;;;20.80;63.30;;;;;;20857923;28;20610;-61
2021/10/04 10:34:31;;;;;;;11.10;1.80;;;20.80;62.30;;;;;;20859991;28;20415;-63
2021/10/04 10:44:32;;;;;;;8.55;1.02;;;20.80;62.50;;;;;;20877300;28;20124;-63
2021/10/04 10:54:37;;;;;;;7.47;1.50;;;20.80;62.40;;;;;;20878421;28;20072;-61
2021/10/04 11:04:40;;;;;;;7.75;0.98;;;20.80;61.80;;;;;;20889684;28;20064;-61
2021/10/04 11:14:57;;;;;;;5.15;0.90;;;20.80;61.60;;;;;;20862576;28;20472;-61
2021/10/04 11:24:59;;;;;;;3.70;0.77;;;20.80;61.80;;;;;;20898918;28;20033;-59
2021/10/04 11:35:13;;;;;;;4.93;1.17;;;20.90;61.50;;;;;;20890253;28;20439;-60
2021/10/04 11:45:14;;;;;;;7.47;0.65;;;20.90;61.20;;;;;;20893809;28;20032;-59
2021/10/04 11:55:15;;;;;;;2.90;0.45;;;20.90;60.60;;;;;;20858692;28;20425;-61
2021/10/04 12:05:31;;;;;;;4.20;0.63;;;20.90;61.00;;;;;;20871770;28;20114;-60
2021/10/04 12:15:32;;;;;;;11.60;0.93;;;21.00;61.60;;;;;;20853714;28;20496;-60
2021/10/04 12:25:32;;;;;;;2.05;0.60;;;21.00;60.60;;;;;;20852204;28;20466;-62
2021/10/04 12:35:33;;;;;;;7.07;0.90;;;20.90;60.90;;;;;;20856275;28;20068;-60
2021/10/04 12:45:35;;;;;;;7.13;0.85;;;20.90;60.50;;;;;;20878003;28;20117;-60
2021/10/04 12:55:59;;;;;;;3.30;0.65;;;20.90;59.90;;;;;;20850882;28;20036;-61
2021/10/04 13:06:00;;;;;;;4.05;0.38;;;20.90;60.70;;;;;;20854795;28;20553;-63
2021/10/04 13:16:03;;;;;;;2.53;0.77;;;20.90;59.90;;;;;;20857466;28;20056;-62
2021/10/04 13:26:07;;;;;;;5.63;0.80;;;20.90;60.10;;;;;;20861267;28;20035;-62
2021/10/04 13:36:09;;;;;;;6.45;0.70;;;20.90;60.30;;;;;;20847158;28;20036;-62
2021/10/04 13:46:10;;;;;;;8.00;0.82;;;20.90;60.40;;;;;;20884565;28;20086;-62
2021/10/04 13:56:10;;;;;;;4.57;0.63;;;20.90;59.80;;;;;;20851578;28;20036;-60
2021/10/04 14:06:11;;;;;;;6.18;1.13;;;20.90;57.20;;;;;;20863913;28;20029;-61
2021/10/04 14:16:12;;;;;;;9.30;1.20;;;20.80;56.10;;;;;;20878598;28;20491;-61
2021/10/04 14:26:13;;;;;;;4.43;0.55;;;20.80;55.50;;;;;;20864717;28;20021;-61
2021/10/04 14:36:13;;;;;;;2.55;0.50;;;20.80;55.60;;;;;;20870172;28;20495;-61
2021/10/04 14:46:14;;;;;;;2.95;0.30;;;20.70;54.30;;;;;;20873312;28;20078;-62
2021/10/04 14:56:15;;;;;;;3.72;0.63;;;20.70;53.50;;;;;;20867026;28;20503;-60
2021/10/04 15:06:15;;;;;;;3.35;0.93;;;20.60;52.90;;;;;;20882551;28;20087;-59
2021/10/04 15:16:16;;;;;;;4.50;0.60;;;20.70;53.40;;;;;;20865344;28;20075;-60
2021/10/04 15:26:17;;;;;;;2.88;0.55;;;20.60;54.00;;;;;;20865286;28;20588;-61
2021/10/04 15:36:20;;;;;;;5.70;0.70;;;20.60;52.70;;;;;;20850718;28;20435;-59
2021/10/04 15:46:21;;;;;;;13.13;9.38;;;20.70;53.90;;;;;;20829438;28;20042;-61
2021/10/04 15:56:21;;;;;;;15.32;7.22;;;20.70;54.10;;;;;;20823981;28;20032;-60
2021/10/04 16:06:22;;;;;;;9.65;5.72;;;20.70;53.20;;;;;;20827826;28;20100;-61
2021/10/04 16:16:23;;;;;;;12.38;4.38;;;20.70;54.40;;;;;;20857341;28;20028;-61
2021/10/04 16:26:24;;;;;;;5.07;2.13;;;20.70;54.00;;;;;;20890025;28;20559;-61
2021/10/04 16:36:27;;;;;;;5.68;1.92;;;20.70;53.30;;;;;;20852957;28;20479;-61
2021/10/04 16:46:27;;;;;;;5.03;1.17;;;20.70;53.60;;;;;;20894437;28;20069;-61
2021/10/04 16:56:29;;;;;;;8.60;1.83;;;20.70;53.10;;;;;;20864655;28;20041;-61
2021/10/04 17:06:30;;;;;;;16.15;1.77;;;20.70;54.60;;;;;;20863806;28;20566;-59
2021/10/04 17:16:31;;;;;;;6.20;1.23;;;20.70;55.30;;;;;;20857378;28;20060;-58
2021/10/04 17:26:31;;;;;;;5.47;1.40;;;20.80;55.50;;;;;;20879181;28;20029;-58
2021/10/04 17:36:33;;;;;;;9.20;1.55;;;20.80;55.90;;;;;;20831657;28;20033;-59
2021/10/04 17:46:38;;;;;;;6.65;1.08;;;20.90;56.80;;;;;;20832157;28;20621;-58
2021/10/04 17:56:39;;;;;;;5.80;1.30;;;20.90;57.80;;;;;;20865483;28;20028;-56
2021/10/04 18:06:40;;;;;;;13.07;1.92;;;20.80;58.30;;;;;;20877947;28;20108;-57
2021/10/04 18:16:40;;;;;;;10.10;1.43;;;20.90;59.20;;;;;;20837984;28;20550;-58
2021/10/04 18:26:41;;;;;;;3.33;1.42;;;20.80;59.10;;;;;;20843169;28;20511;-56
2021/10/04 18:36:41;;;;;;;12.70;1.20;;;20.90;59.70;;;;;;20882178;28;20484;-59
2021/10/04 18:46:42;;;;;;;11.18;2.03;;;20.80;60.10;;;;;;20877833;28;20113;-58
2021/10/04 18:56:44;;;;;;;6.93;1.30;;;20.80;60.20;;;;;;20863729;28;20064;-57
2021/10/04 19:06:44;;;;;;;5.60;0.90;;;20.80;60.20;;;;;;20884126;28;20037;-58
2021/10/04 19:16:45;;;;;;;8.23;2.17;;;20.90;61.80;;;;;;20875988;28;20511;-57
2021/10/04 19:26:46;;;;;;;8.07;1.45;;;20.90;62.70;;;;;;20881888;28;20033;-60
2021/10/04 19:36:46;;;;;;;10.15;3.03;;;20.80;62.90;;;;;;20842688;28;20064;-60
2021/10/04 19:46:47;;;;;;;7.55;1.83;;;20.70;61.50;;;;;;20874451;28;20534;-59
2021/10/04 19:56:47;;;;;;;10.18;1.65;;;20.80;61.90;;;;;;20865098;28;20435;-60
2021/10/04 20:06:48;;;;;;;9.73;1.38;;;20.80;61.90;;;;;;20850244;28;20036;-59
2021/10/04 20:16:49;;;;;;;12.13;1.65;;;20.80;63.10;;;;;;20868700;28;20086;-59
2021/10/04 20:26:49;;;;;;;5.38;0.90;;;20.80;62.40;;;;;;20890991;28;20483;-61
2021/10/04 20:36:51;;;;;;;14.07;1.85;;;20.80;62.60;;;;;;20873747;28;20021;-58
2021/10/04 20:46:52;;;;;;;8.23;2.38;;;20.80;63.70;;;;;;20853846;28;20029;-59
2021/10/04 20:56:53;;;;;;;7.07;2.17;;;20.80;62.60;;;;;;20872096;28;20056;-58
2021/10/04 21:06:56;;;;;;;5.90;1.33;;;20.80;62.70;;;;;;20868383;28;20033;-59
2021/10/04 21:16:57;;;;;;;8.88;1.95;;;20.80;63.10;;;;;;20866933;28;20506;-60
2021/10/04 21:26:58;;;;;;;3.40;1.20;;;20.90;63.10;;;;;;20845673;28;20108;-60
2021/10/04 21:36:58;;;;;;;9.87;1.67;;;20.80;63.10;;;;;;20833261;28;20484;-59
2021/10/04 21:46:59;;;;;;;6.68;1.63;;;20.80;63.20;;;;;;20870684;28;20033;-60
2021/10/04 21:57:00;;;;;;;8.05;1.20;;;20.80;63.40;;;;;;20833499;28;20030;-60
2021/10/04 22:07:19;;;;;;;3.63;1.47;;;20.70;63.80;;;;;;20866837;28;20059;-60
2021/10/04 22:17:19;;;;;;;6.60;2.03;;;20.70;64.40;;;;;;20899669;28;20028;-60
2021/10/04 22:27:20;;;;;;;4.55;1.10;;;20.70;64.40;;;;;;20861551;28;20026;-61
2021/10/04 22:37:21;;;;;;;7.38;1.92;;;20.60;64.50;;;;;;20860471;28;20107;-61
2021/10/04 22:47:21;;;;;;;7.23;1.10;;;20.60;64.60;;;;;;20861655;28;20068;-61
2021/10/04 22:57:22;;;;;;;2.58;1.13;;;20.50;64.60;;;;;;20902795;28;20392;-61
2021/10/04 23:07:22;;;;;;;2.80;0.80;;;20.50;65.10;;;;;;20873329;28;20033;-62
2021/10/04 23:17:23;;;;;;;4.43;0.87;;;20.50;65.70;;;;;;20874243;28;20091;-61
2021/10/04 23:27:24;;;;;;;2.53;0.82;;;20.50;65.20;;;;;;20878082;28;20079;-61
2021/10/04 23:37:24;;;;;;;4.57;1.13;;;20.40;65.60;;;;;;20880638;28;20087;-61
2021/10/04 23:47:25;;;;;;;1.87;0.70;;;20.30;65.60;;;;;;20869837;28;20526;-60
2021/10/04 23:57:25;;;;;;;2.03;0.90;;;20.30;65.50;;;;;;20867652;28;20474;-61
